Terminal Aerodrome Forecast
Issued by NWS Jackson, MS

Home | Current Version | Previous Version | Text Only | Print | Product List | Glossary On
Versions: 1 2 3 4 5 6 7 8 9 10 11 12 13
657
FTUS44 KJAN 211720
TAFHBG
TAF
KHBG 211720Z 2118/2218 13009KT P6SM VCTS BKN050CB
     FM220000 14006KT P6SM BKN050
     FM220900 12004KT 5SM BR BKN025
     FM221100 11005KT 3SM BR BKN015
     FM221300 11006KT 5SM BR VCTS BKN015CB OVC025
     FM221400 12007KT P6SM VCTS BKN015CB=

USA.gov is the U.S. government's official web portal to all federal, state and local government web resources and services.